createdAt,value
2023-01-25T00:00:50.835Z,3.70
2023-01-25T00:03:18.773Z,3.70
2023-01-25T00:05:46.936Z,3.63
2023-01-25T00:08:14.875Z,3.65
2023-01-25T00:10:42.763Z,3.70
2023-01-25T00:13:10.752Z,3.66
2023-01-25T00:15:38.803Z,3.77
2023-01-25T00:18:08.058Z,3.81
2023-01-25T00:20:35.918Z,3.61
2023-01-25T00:23:03.865Z,3.66
2023-01-25T00:25:31.704Z,3.65
2023-01-25T00:27:59.538Z,3.58
2023-01-25T00:30:27.485Z,3.54
2023-01-25T00:33:03.057Z,3.56
2023-01-25T00:35:33.519Z,3.58
2023-01-25T00:38:03.848Z,3.56
2023-01-25T00:40:32.127Z,3.65
2023-01-25T00:43:01.186Z,3.70
2023-01-25T00:45:29.088Z,3.61
2023-01-25T00:47:57.385Z,3.56
2023-01-25T00:50:25.387Z,3.51
2023-01-25T00:52:54.556Z,3.43
2023-01-25T00:55:22.375Z,3.47
2023-01-25T00:57:50.297Z,3.54
2023-01-25T01:00:18.752Z,3.50
2023-01-25T01:02:46.638Z,3.38
2023-01-25T01:05:14.605Z,3.45
2023-01-25T01:07:43.785Z,3.47
2023-01-25T01:10:13.349Z,3.43
2023-01-25T01:12:41.207Z,3.36
2023-01-25T01:15:10.439Z,3.42
2023-01-25T01:17:38.322Z,3.42
2023-01-25T01:20:07.064Z,3.52
2023-01-25T01:22:34.930Z,3.64
2023-01-25T01:25:02.773Z,3.47
2023-01-25T01:27:32.471Z,3.56
2023-01-25T01:30:00.377Z,3.52
2023-01-25T01:32:28.335Z,3.55
2023-01-25T01:34:56.283Z,3.40
2023-01-25T01:37:24.293Z,3.36
2023-01-25T01:39:53.199Z,3.27
2023-01-25T01:42:21.086Z,3.31
2023-01-25T01:44:52.647Z,3.30
2023-01-25T01:47:25.163Z,3.40
2023-01-25T01:49:55.377Z,3.26
2023-01-25T01:52:28.669Z,3.23
2023-01-25T01:55:01.186Z,3.16
2023-01-25T01:57:35.973Z,3.13
2023-01-25T02:00:11.379Z,3.18
2023-01-25T02:02:39.376Z,3.25
2023-01-25T02:05:11.343Z,3.15
2023-01-25T02:07:40.491Z,3.20
2023-01-25T02:10:12.549Z,3.13
2023-01-25T02:12:41.846Z,3.10
2023-01-25T02:15:12.489Z,3.02
2023-01-25T02:17:42.692Z,3.01
2023-01-25T02:20:18.698Z,3.07
2023-01-25T02:22:54.720Z,3.07
2023-01-25T02:25:24.007Z,3.04
2023-01-25T02:27:55.998Z,3.05
2023-01-25T02:30:24.550Z,3.14
2023-01-25T02:32:52.456Z,3.17
2023-01-25T02:35:22.073Z,3.22
2023-01-25T02:37:50.463Z,3.27
2023-01-25T02:40:19.161Z,3.15
2023-01-25T02:42:48.367Z,3.21
2023-01-25T02:45:20.185Z,3.27
2023-01-25T02:47:48.735Z,3.27
2023-01-25T02:50:17.453Z,3.26
2023-01-25T02:52:45.340Z,3.28
2023-01-25T02:55:13.498Z,3.35
2023-01-25T02:57:41.373Z,3.34
2023-01-25T03:00:13.197Z,3.09
2023-01-25T03:02:41.526Z,2.99
2023-01-25T03:05:10.661Z,3.00
2023-01-25T03:07:38.684Z,2.94
2023-01-25T03:10:07.157Z,2.84
2023-01-25T03:12:35.408Z,2.90
2023-01-25T03:15:03.370Z,2.77
2023-01-25T03:17:32.612Z,2.82
2023-01-25T03:20:00.443Z,2.79
2023-01-25T03:22:28.307Z,2.90
2023-01-25T03:24:57.344Z,2.93
2023-01-25T03:27:25.391Z,2.67
2023-01-25T03:29:53.317Z,2.71
2023-01-25T03:32:21.165Z,2.82
2023-01-25T03:34:50.615Z,2.92
2023-01-25T03:37:18.618Z,2.92
2023-01-25T03:39:46.467Z,2.81
2023-01-25T03:42:15.305Z,2.84
2023-01-25T03:44:43.150Z,2.79
2023-01-25T03:47:11.499Z,2.85
2023-01-25T03:49:39.378Z,2.80
2023-01-25T03:52:08.908Z,2.65
2023-01-25T03:54:36.788Z,2.79
2023-01-25T03:57:04.853Z,2.90
2023-01-25T03:59:32.695Z,2.86
2023-01-25T04:02:00.588Z,2.82
2023-01-25T04:04:28.456Z,2.81
2023-01-25T04:06:56.366Z,2.84
2023-01-25T04:09:25.654Z,2.78
2023-01-25T04:11:53.502Z,2.78
2023-01-25T04:14:35.005Z,2.66
2023-01-25T04:17:10.886Z,2.61
2023-01-25T04:19:38.952Z,2.56
2023-01-25T04:22:06.894Z,2.66
2023-01-25T04:24:36.097Z,2.79
2023-01-25T04:27:04.009Z,2.81
2023-01-25T04:29:40.514Z,2.68
2023-01-25T04:32:09.537Z,2.58
2023-01-25T04:34:37.539Z,2.58
2023-01-25T04:37:05.396Z,2.65
2023-01-25T04:39:33.303Z,2.57
2023-01-25T04:42:02.551Z,2.59
2023-01-25T04:44:30.455Z,2.69
2023-01-25T04:46:58.329Z,2.56
2023-01-25T04:49:26.203Z,2.55
2023-01-25T04:51:54.062Z,2.74
2023-01-25T04:54:21.930Z,2.71
2023-01-25T04:56:49.725Z,2.55
2023-01-25T04:59:18.980Z,2.56
2023-01-25T05:01:46.847Z,2.69
2023-01-25T05:04:14.722Z,2.79
2023-01-25T05:06:42.611Z,2.77
2023-01-25T05:09:10.737Z,2.82
2023-01-25T05:11:38.922Z,2.69
2023-01-25T05:14:06.762Z,2.66
2023-01-25T05:16:36.071Z,2.71
2023-01-25T05:19:03.949Z,2.69
2023-01-25T05:21:49.241Z,2.68
2023-01-25T05:24:17.166Z,2.70
2023-01-25T05:27:03.953Z,2.77
2023-01-25T05:29:35.932Z,2.71
2023-01-25T05:32:06.946Z,2.62
2023-01-25T05:34:35.428Z,2.66
2023-01-25T05:37:04.452Z,2.57
2023-01-25T05:39:32.505Z,2.60
2023-01-25T05:42:00.580Z,2.63
2023-01-25T05:44:28.479Z,2.65
2023-01-25T05:46:56.641Z,2.60
2023-01-25T05:49:25.871Z,2.63
2023-01-25T05:51:53.684Z,2.65
2023-01-25T05:54:22.000Z,2.54
2023-01-25T05:56:51.104Z,2.52
2023-01-25T05:59:19.248Z,2.57
2023-01-25T06:01:47.302Z,2.72
2023-01-25T06:04:16.904Z,2.79
2023-01-25T06:06:46.127Z,2.59
2023-01-25T06:09:14.760Z,2.58
2023-01-25T06:11:44.935Z,2.58
2023-01-25T06:14:13.035Z,2.48
2023-01-25T06:16:40.978Z,2.61
2023-01-25T06:19:09.557Z,2.64
2023-01-25T06:21:37.682Z,2.48
2023-01-25T06:24:07.683Z,2.38
2023-01-25T06:26:35.595Z,2.52
2023-01-25T06:29:05.576Z,2.53
2023-01-25T06:31:33.541Z,2.47
2023-01-25T06:34:04.469Z,2.24
2023-01-25T06:36:32.330Z,2.18
2023-01-25T06:39:00.353Z,2.35
2023-01-25T06:41:29.650Z,2.33
2023-01-25T06:43:57.500Z,2.46
2023-01-25T06:46:25.798Z,2.44
2023-01-25T06:48:53.728Z,2.59
2023-01-25T06:51:21.541Z,2.68
2023-01-25T06:53:49.354Z,2.68
2023-01-25T06:56:19.640Z,2.57
2023-01-25T06:58:48.999Z,2.58
2023-01-25T07:01:19.910Z,2.75
2023-01-25T07:03:49.926Z,2.81
2023-01-25T07:06:17.898Z,2.75
2023-01-25T07:08:46.095Z,2.68
2023-01-25T07:11:15.301Z,2.67
2023-01-25T07:13:45.840Z,2.76
2023-01-25T07:16:17.255Z,2.76
2023-01-25T07:18:45.586Z,2.80
2023-01-25T07:21:14.906Z,2.85
2023-01-25T07:23:43.330Z,2.82
2023-01-25T07:26:16.455Z,2.84
2023-01-25T07:28:44.654Z,2.81
2023-01-25T07:31:12.703Z,2.82
2023-01-25T07:33:42.272Z,2.91
2023-01-25T07:36:11.905Z,2.91
2023-01-25T07:38:39.813Z,3.00
2023-01-25T07:41:07.821Z,2.93
2023-01-25T07:43:35.737Z,2.91
2023-01-25T07:46:05.703Z,2.85
2023-01-25T07:48:34.099Z,2.81
2023-01-25T07:51:23.017Z,2.62
2023-01-25T07:53:52.760Z,2.45
2023-01-25T07:56:22.002Z,2.57
2023-01-25T07:58:49.928Z,2.70
2023-01-25T08:01:19.623Z,2.78
2023-01-25T08:03:48.384Z,2.82
2023-01-25T08:06:18.485Z,2.96
2023-01-25T08:08:49.155Z,2.87
2023-01-25T08:11:20.233Z,2.88
2023-01-25T08:13:49.884Z,2.95
2023-01-25T08:16:19.560Z,2.96
2023-01-25T08:18:49.120Z,3.02
2023-01-25T08:21:19.047Z,2.99
2023-01-25T08:23:47.464Z,2.87
2023-01-25T08:26:18.130Z,2.86
2023-01-25T08:28:46.384Z,2.65
2023-01-25T08:31:16.289Z,2.65
2023-01-25T08:33:46.663Z,2.67
2023-01-25T08:36:15.586Z,2.53
2023-01-25T08:38:44.933Z,2.51
2023-01-25T08:41:14.789Z,2.53
2023-01-25T08:43:43.085Z,2.54
2023-01-25T08:46:11.612Z,2.55
2023-01-25T08:48:39.741Z,2.73
2023-01-25T08:51:09.999Z,2.73
2023-01-25T08:53:37.808Z,2.90
2023-01-25T08:56:09.047Z,2.96
2023-01-25T08:58:39.708Z,2.87
2023-01-25T09:01:09.823Z,2.78
2023-01-25T09:03:39.713Z,2.77
2023-01-25T09:06:08.901Z,2.78
2023-01-25T09:08:38.001Z,2.86
2023-01-25T09:11:08.712Z,2.84
2023-01-25T09:13:36.732Z,2.89
2023-01-25T09:16:07.760Z,3.01
2023-01-25T09:18:37.780Z,3.10
2023-01-25T09:21:07.903Z,2.91
2023-01-25T09:23:44.396Z,2.92
2023-01-25T09:26:21.201Z,2.93
2023-01-25T09:28:50.572Z,2.96
2023-01-25T09:31:22.292Z,3.06
2023-01-25T09:33:52.962Z,2.89
2023-01-25T09:36:21.578Z,2.86
2023-01-25T09:38:49.804Z,2.90
2023-01-25T09:41:36.957Z,2.62
2023-01-25T09:44:23.992Z,2.62
2023-01-25T09:46:55.200Z,2.54
2023-01-25T09:49:37.121Z,2.50
2023-01-25T09:52:30.136Z,2.62
2023-01-25T09:54:58.942Z,2.72
2023-01-25T09:57:34.605Z,2.74
2023-01-25T10:00:10.659Z,2.58
2023-01-25T10:02:45.375Z,2.67
2023-01-25T10:05:17.986Z,2.87
2023-01-25T10:07:58.163Z,2.80
2023-01-25T10:10:33.915Z,2.82
2023-01-25T10:13:04.095Z,2.92
2023-01-25T10:15:38.265Z,2.82
2023-01-25T10:18:18.180Z,2.96
2023-01-25T10:20:51.085Z,3.04
2023-01-25T10:23:38.787Z,3.08
2023-01-25T10:26:11.279Z,3.03
2023-01-25T10:28:47.595Z,3.01
2023-01-25T10:31:20.188Z,2.97
2023-01-25T10:33:51.859Z,3.06
2023-01-25T10:36:26.088Z,3.08
2023-01-25T10:38:59.417Z,3.08
2023-01-25T10:41:32.691Z,3.18
2023-01-25T10:44:19.400Z,3.25
2023-01-25T10:46:52.765Z,3.20
2023-01-25T10:49:26.401Z,3.06
2023-01-25T10:51:54.471Z,3.08
2023-01-25T10:54:24.181Z,3.09
2023-01-25T10:56:53.439Z,3.10
2023-01-25T10:59:25.702Z,3.22
2023-01-25T11:01:54.826Z,3.18
2023-01-25T11:04:32.326Z,3.14
2023-01-25T11:07:02.687Z,3.13
2023-01-25T11:09:33.527Z,2.94
2023-01-25T11:12:03.066Z,2.69
2023-01-25T11:14:34.164Z,2.63
2023-01-25T11:17:05.102Z,2.72
2023-01-25T11:19:35.778Z,2.91
2023-01-25T11:22:05.852Z,2.97
2023-01-25T11:24:34.670Z,2.96
2023-01-25T11:27:23.076Z,3.14
2023-01-25T11:30:11.336Z,2.96
2023-01-25T11:32:41.069Z,2.98
2023-01-25T11:35:15.033Z,2.93
2023-01-25T11:38:09.094Z,3.00
2023-01-25T11:40:43.019Z,3.03
2023-01-25T11:43:27.227Z,3.07
2023-01-25T11:46:13.123Z,3.09
2023-01-25T11:49:00.098Z,3.02
2023-01-25T11:51:33.707Z,2.88
2023-01-25T11:54:21.900Z,3.03
2023-01-25T11:56:58.963Z,2.95
2023-01-25T11:59:51.987Z,3.04
2023-01-25T12:02:48.997Z,3.07
2023-01-25T12:05:29.942Z,3.09
2023-01-25T12:08:11.128Z,2.94
2023-01-25T12:10:48.478Z,2.79
2023-01-25T12:13:27.764Z,2.89
2023-01-25T12:16:16.648Z,3.04
2023-01-25T12:19:07.109Z,3.21
2023-01-25T12:21:51.492Z,3.21
2023-01-25T12:24:38.637Z,3.03
2023-01-25T12:27:21.589Z,2.98
2023-01-25T12:29:55.723Z,3.14
2023-01-25T12:32:27.787Z,2.88
2023-01-25T12:35:05.113Z,2.70
2023-01-25T12:37:38.873Z,2.86
2023-01-25T12:40:13.710Z,3.02
2023-01-25T12:42:48.723Z,2.92
2023-01-25T12:45:20.582Z,2.98
2023-01-25T12:47:55.149Z,3.08
2023-01-25T12:50:30.246Z,2.96
2023-01-25T12:53:04.771Z,3.03
2023-01-25T12:55:32.793Z,3.03
2023-01-25T12:58:05.465Z,3.17
2023-01-25T13:00:38.523Z,3.35
2023-01-25T13:03:24.963Z,3.37
2023-01-25T13:06:01.584Z,3.34
2023-01-25T13:08:43.163Z,3.20
2023-01-25T13:11:16.165Z,3.14
2023-01-25T13:13:44.134Z,3.25
2023-01-25T13:16:38.077Z,3.27
2023-01-25T13:19:06.502Z,3.19
2023-01-25T13:21:46.075Z,3.25
2023-01-25T13:24:19.707Z,3.32
2023-01-25T13:26:59.210Z,3.35
2023-01-25T13:29:59.063Z,3.35
2023-01-25T13:32:56.632Z,3.30
2023-01-25T13:35:33.183Z,3.18
2023-01-25T13:38:31.464Z,3.17
2023-01-25T13:41:24.258Z,3.18
2023-01-25T13:44:14.572Z,3.18
2023-01-25T13:46:43.350Z,3.10
2023-01-25T13:49:22.294Z,3.08
2023-01-25T13:51:50.411Z,3.12
2023-01-25T13:54:19.990Z,3.16
2023-01-25T13:56:47.900Z,3.10
2023-01-25T13:59:26.873Z,3.12
2023-01-25T14:01:54.865Z,3.15
2023-01-25T14:04:23.151Z,3.15
2023-01-25T14:06:57.264Z,3.19
2023-01-25T14:09:28.111Z,3.10
2023-01-25T14:11:57.874Z,2.91
2023-01-25T14:14:28.354Z,2.90
2023-01-25T14:19:37.384Z,2.90
2023-01-25T14:22:27.388Z,3.03
2023-01-25T14:25:13.079Z,3.15
2023-01-25T14:27:46.040Z,3.14
2023-01-25T14:30:19.774Z,3.14
2023-01-25T14:32:48.310Z,3.18
2023-01-25T14:35:43.112Z,2.95
2023-01-25T14:38:30.159Z,2.97
2023-01-25T14:41:03.317Z,2.99
2023-01-25T14:43:32.481Z,2.97
2023-01-25T14:46:00.905Z,3.09
2023-01-25T14:48:36.544Z,3.13
2023-01-25T14:51:08.402Z,3.11
2023-01-25T14:53:40.847Z,3.02
2023-01-25T14:56:22.842Z,3.10
2023-01-25T14:58:59.432Z,2.95
2023-01-25T15:01:33.004Z,2.96
2023-01-25T15:04:01.450Z,2.94
2023-01-25T15:06:29.611Z,2.99
2023-01-25T15:08:57.685Z,3.01
2023-01-25T15:11:45.490Z,3.02
2023-01-25T15:14:19.056Z,2.68
2023-01-25T15:16:47.275Z,2.39
2023-01-25T15:19:23.551Z,2.50
2023-01-25T15:21:52.083Z,2.67
2023-01-25T15:24:19.989Z,2.57
2023-01-25T15:26:53.041Z,2.60
2023-01-25T15:29:22.791Z,2.58
2023-01-25T15:31:52.295Z,2.68
2023-01-25T15:34:22.070Z,2.78
2023-01-25T15:36:50.075Z,2.81
2023-01-25T15:39:19.862Z,2.79
2023-01-25T15:41:48.259Z,2.71
2023-01-25T15:44:20.117Z,2.69
2023-01-25T15:46:51.429Z,2.72
2023-01-25T15:49:26.128Z,2.78
2023-01-25T15:51:54.067Z,2.67
2023-01-25T15:54:21.923Z,2.71
2023-01-25T15:56:53.782Z,2.61
2023-01-25T15:59:23.148Z,2.56
2023-01-25T16:01:51.442Z,2.57
2023-01-25T16:04:19.860Z,2.54
2023-01-25T16:06:50.175Z,2.60
2023-01-25T16:09:20.810Z,2.56
2023-01-25T16:11:51.699Z,2.47
2023-01-25T16:14:19.968Z,2.51
2023-01-25T16:16:52.252Z,2.52
2023-01-25T16:19:22.248Z,2.37
2023-01-25T16:21:50.235Z,2.39
2023-01-25T16:24:18.923Z,2.47
2023-01-25T16:26:51.741Z,2.57
2023-01-25T16:29:19.866Z,2.55
2023-01-25T16:31:49.144Z,2.36
2023-01-25T16:34:17.122Z,2.36
2023-01-25T16:36:50.474Z,2.29
2023-01-25T16:39:20.543Z,2.29
2023-01-25T16:41:49.011Z,2.25
2023-01-25T16:44:17.715Z,2.18
2023-01-25T16:46:47.534Z,2.17
2023-01-25T16:49:19.718Z,2.11
2023-01-25T16:51:49.002Z,2.11
2023-01-25T16:54:16.859Z,2.23
2023-01-25T16:56:44.774Z,1.98
2023-01-25T16:59:13.063Z,2.02
2023-01-25T17:01:41.604Z,1.94
2023-01-25T17:04:10.233Z,2.08
2023-01-25T17:06:42.927Z,1.87
2023-01-25T17:09:25.277Z,1.59
2023-01-25T17:11:54.153Z,1.60
2023-01-25T17:14:23.256Z,1.69
2023-01-25T17:16:53.774Z,1.87
2023-01-25T17:19:22.267Z,1.99
2023-01-25T17:21:51.636Z,1.77
2023-01-25T17:24:24.099Z,1.78
2023-01-25T17:26:52.491Z,1.88
2023-01-25T17:29:21.804Z,1.97
2023-01-25T17:31:50.239Z,2.06
2023-01-25T17:34:21.715Z,2.15
2023-01-25T17:36:52.625Z,2.12
2023-01-25T17:39:24.830Z,1.97
2023-01-25T17:41:53.619Z,2.14
2023-01-25T17:44:23.057Z,2.15
2023-01-25T17:46:51.838Z,2.00
2023-01-25T17:49:20.077Z,1.79
2023-01-25T17:51:48.051Z,1.86
2023-01-25T17:54:17.351Z,1.93
2023-01-25T17:56:45.428Z,1.91
2023-01-25T17:59:13.300Z,1.83
2023-01-25T18:01:42.959Z,1.79
2023-01-25T18:04:13.238Z,1.91
2023-01-25T18:06:41.592Z,1.77
2023-01-25T18:09:09.750Z,1.71
2023-01-25T18:11:40.321Z,1.49
2023-01-25T18:14:12.129Z,1.61
2023-01-25T18:16:41.739Z,1.73
2023-01-25T18:19:10.799Z,1.83
2023-01-25T18:21:39.374Z,1.78
2023-01-25T18:24:25.404Z,1.76
2023-01-25T18:26:59.845Z,1.66
2023-01-25T18:29:49.087Z,1.75
2023-01-25T18:32:17.329Z,1.73
2023-01-25T18:34:46.895Z,1.83
2023-01-25T18:37:21.822Z,1.78
2023-01-25T18:39:51.525Z,1.58
2023-01-25T18:42:21.618Z,1.52
2023-01-25T18:44:49.622Z,1.25
2023-01-25T18:47:18.987Z,1.13
2023-01-25T18:49:47.752Z,1.16
2023-01-25T18:52:16.677Z,1.39
2023-01-25T18:54:44.921Z,1.39
2023-01-25T18:57:13.284Z,1.45
2023-01-25T18:59:43.416Z,1.57
2023-01-25T19:02:13.125Z,1.51
2023-01-25T19:04:41.103Z,1.36
2023-01-25T19:07:09.153Z,1.23
2023-01-25T19:09:37.121Z,1.21
2023-01-25T19:12:05.499Z,1.11
2023-01-25T19:14:33.351Z,1.22
2023-01-25T19:17:02.578Z,1.21
2023-01-25T19:19:32.268Z,1.26
2023-01-25T19:22:00.492Z,1.29
2023-01-25T19:24:28.629Z,1.35
2023-01-25T19:26:56.463Z,1.41
2023-01-25T19:29:25.589Z,1.58
2023-01-25T19:31:53.454Z,1.69
2023-01-25T19:34:23.191Z,1.77
2023-01-25T19:36:51.215Z,1.86
2023-01-25T19:39:19.065Z,2.00
2023-01-25T19:41:47.632Z,1.97
2023-01-25T19:44:16.316Z,2.05
2023-01-25T19:46:44.771Z,2.14
2023-01-25T19:49:15.095Z,2.21
2023-01-25T19:51:48.997Z,2.16
2023-01-25T19:54:18.630Z,2.30
2023-01-25T19:56:48.501Z,2.35
2023-01-25T19:59:18.566Z,2.32
2023-01-25T20:01:47.611Z,2.16
2023-01-25T20:04:19.774Z,2.12
2023-01-25T20:06:49.718Z,2.09
2023-01-25T20:09:19.918Z,2.13
2023-01-25T20:11:48.646Z,2.11
2023-01-25T20:14:17.171Z,2.17
2023-01-25T20:16:47.165Z,2.16
2023-01-25T20:19:15.059Z,2.18
2023-01-25T20:21:44.319Z,2.02
2023-01-25T20:24:13.775Z,2.02
2023-01-25T20:26:43.084Z,2.00
2023-01-25T20:29:12.435Z,2.03
2023-01-25T20:31:42.291Z,2.01
2023-01-25T20:34:13.329Z,1.94
2023-01-25T20:36:42.407Z,1.89
2023-01-25T20:39:13.878Z,2.03
2023-01-25T20:41:41.753Z,1.92
2023-01-25T20:44:11.360Z,1.95
2023-01-25T20:46:40.502Z,2.02
2023-01-25T20:49:11.166Z,2.03
2023-01-25T20:51:39.979Z,2.06
2023-01-25T20:54:09.117Z,2.14
2023-01-25T20:56:39.146Z,2.05
2023-01-25T20:59:07.430Z,2.15
2023-01-25T21:01:37.523Z,2.17
2023-01-25T21:04:08.138Z,2.15
2023-01-25T21:06:36.568Z,2.16
2023-01-25T21:09:05.466Z,2.11
2023-01-25T21:11:34.730Z,2.06
2023-01-25T21:14:04.353Z,1.89
2023-01-25T21:16:36.290Z,1.92
2023-01-25T21:19:06.857Z,2.00
2023-01-25T21:21:35.839Z,2.06
2023-01-25T21:24:05.962Z,1.99
2023-01-25T21:26:35.489Z,2.05
2023-01-25T21:29:05.880Z,2.07
2023-01-25T21:31:35.944Z,1.71
2023-01-25T21:34:05.204Z,1.72
2023-01-25T21:36:33.436Z,1.87
2023-01-25T21:39:01.417Z,1.92
2023-01-25T21:41:31.345Z,1.97
2023-01-25T21:44:18.468Z,2.05
2023-01-25T21:47:16.293Z,2.08
2023-01-25T21:49:53.801Z,2.08
2023-01-25T21:52:21.651Z,1.98
2023-01-25T21:54:49.641Z,2.06
2023-01-25T21:57:17.647Z,2.14
2023-01-25T21:59:45.633Z,2.10
2023-01-25T22:02:15.831Z,2.12
2023-01-25T22:04:44.041Z,1.90
2023-01-25T22:07:12.540Z,1.96
2023-01-25T22:09:40.423Z,2.00
2023-01-25T22:12:08.485Z,2.05
2023-01-25T22:14:36.808Z,1.94
2023-01-25T22:17:05.122Z,1.92
2023-01-25T22:19:34.429Z,2.03
2023-01-25T22:22:03.287Z,2.08
2023-01-25T22:24:31.152Z,1.98
2023-01-25T22:27:05.623Z,2.00
2023-01-25T22:29:35.048Z,2.12
2023-01-25T22:32:03.256Z,2.10
2023-01-25T22:34:31.719Z,2.11
2023-01-25T22:37:01.192Z,2.12
2023-01-25T22:39:29.417Z,2.23
2023-01-25T22:41:57.555Z,2.28
2023-01-25T22:44:25.803Z,2.31
2023-01-25T22:46:53.836Z,2.21
2023-01-25T22:49:22.143Z,2.21
2023-01-25T22:51:50.008Z,2.24
2023-01-25T22:54:19.327Z,2.22
2023-01-25T22:56:47.273Z,2.25
2023-01-25T22:59:18.884Z,2.27
2023-01-25T23:01:46.910Z,1.95
2023-01-25T23:04:14.813Z,2.06
2023-01-25T23:06:42.969Z,2.14
2023-01-25T23:09:11.196Z,2.23
2023-01-25T23:11:40.533Z,2.22
2023-01-25T23:14:29.772Z,2.05
2023-01-25T23:17:17.888Z,2.03
2023-01-25T23:19:44.839Z,2.04
2023-01-25T23:22:12.690Z,1.87
2023-01-25T23:24:40.752Z,1.96
2023-01-25T23:27:10.087Z,2.12
2023-01-25T23:29:38.266Z,2.15
2023-01-25T23:32:06.721Z,2.13
2023-01-25T23:34:39.660Z,2.17
2023-01-25T23:37:07.606Z,2.18
2023-01-25T23:39:35.447Z,2.08
2023-01-25T23:42:03.648Z,1.98
2023-01-25T23:44:33.382Z,1.88
2023-01-25T23:47:01.732Z,1.81
2023-01-25T23:49:30.060Z,1.92
2023-01-25T23:51:57.911Z,2.00
2023-01-25T23:54:26.967Z,2.06
2023-01-25T23:56:55.531Z,2.13
2023-01-25T23:59:23.427Z,2.03
